Time;durP1;ratioP1;P1;durP2;ratioP2;P2;SDS_P1;SDS_P2;PMS_P1;PMS_P2;Temp;Humidity;BMP_temperature;BMP_pressure;BME280_temperature;BME280_humidity;BME280_pressure;Samples;Min_cycle;Max_cycle;Signal;HPM_P1;HPM_P2
2022/11/17 00:01:33;;;;;;;9.35;6.50;;;11.70;96.00;;;;;;1873935;76;21023;-53
2022/11/17 00:04:03;;;;;;;10.23;7.40;;;11.80;95.90;;;;;;1873918;75;21051;-55
2022/11/17 00:06:32;;;;;;;14.25;8.13;;;11.80;95.80;;;;;;1873919;75;21039;-55
2022/11/17 00:09:01;;;;;;;11.20;7.12;;;11.80;95.80;;;;;;1874004;76;21086;-54
2022/11/17 00:14:31;;;;;;;9.80;6.47;;;11.90;95.80;;;;;;1873908;76;21059;-53
2022/11/17 00:16:51;;;;;;;12.95;7.15;;;11.90;95.70;;;;;;1873854;76;21059;-55
2022/11/17 00:22:07;;;;;;;8.63;6.33;;;11.90;95.60;;;;;;1873942;76;21048;-55
2022/11/17 00:24:36;;;;;;;9.80;6.70;;;12.00;95.60;;;;;;1873841;76;21066;-55
2022/11/17 00:27:05;;;;;;;9.75;7.20;;;12.00;95.60;;;;;;1873941;76;21003;-56
2022/11/17 00:29:34;;;;;;;8.65;5.80;;;12.00;95.50;;;;;;1873794;76;21502;-55
2022/11/17 00:34:51;;;;;;;8.58;6.15;;;12.00;95.30;;;;;;1873827;76;21110;-55
2022/11/17 00:37:20;;;;;;;10.75;6.50;;;12.10;95.30;;;;;;1873830;76;21118;-55
2022/11/17 00:39:49;;;;;;;11.97;6.20;;;12.10;95.20;;;;;;1873785;76;21012;-54
2022/11/17 00:42:19;;;;;;;8.23;6.00;;;12.10;95.20;;;;;;1873965;76;21490;-55
2022/11/17 00:44:48;;;;;;;10.25;5.83;;;12.20;95.10;;;;;;1873910;76;21149;-55
2022/11/17 00:47:17;;;;;;;7.70;6.50;;;12.10;95.10;;;;;;1873954;75;21114;-54
2022/11/17 00:49:46;;;;;;;9.00;5.92;;;12.10;95.00;;;;;;1873749;76;21451;-55
2022/11/17 00:52:15;;;;;;;12.05;7.05;;;12.20;95.10;;;;;;1873800;75;21098;-55
2022/11/17 00:54:45;;;;;;;8.50;5.83;;;12.20;95.00;;;;;;1873766;76;21031;-55
2022/11/17 00:57:14;;;;;;;9.33;6.55;;;12.20;95.00;;;;;;1873858;76;21047;-55
2022/11/17 00:59:42;;;;;;;8.73;6.60;;;12.20;94.90;;;;;;1873770;76;21047;-55
2022/11/17 01:02:11;;;;;;;10.28;7.00;;;12.20;94.90;;;;;;1873953;75;21085;-55
2022/11/17 01:04:40;;;;;;;10.03;7.90;;;12.20;94.90;;;;;;1873825;76;21094;-55
2022/11/17 01:07:10;;;;;;;10.58;7.60;;;12.30;95.00;;;;;;1873904;76;21031;-55
2022/11/17 01:09:39;;;;;;;11.20;6.25;;;12.30;95.00;;;;;;1873881;76;21015;-54
2022/11/17 01:12:08;;;;;;;9.43;6.95;;;12.30;95.10;;;;;;1873879;75;21066;-55
2022/11/17 01:14:37;;;;;;;12.75;7.67;;;12.30;95.20;;;;;;1873936;75;21146;-55
2022/11/17 01:17:07;;;;;;;12.15;8.30;;;12.30;95.20;;;;;;1873890;76;21044;-55
2022/11/17 01:19:36;;;;;;;14.78;9.10;;;12.20;95.20;;;;;;1873826;76;21017;-56
2022/11/17 01:22:05;;;;;;;13.72;9.70;;;12.20;95.30;;;;;;1873940;76;21058;-55
2022/11/17 01:24:36;;;;;;;13.98;8.05;;;12.30;95.20;;;;;;1873371;75;21092;-55
2022/11/17 01:27:05;;;;;;;16.85;9.43;;;12.20;95.20;;;;;;1873952;76;21043;-54
2022/11/17 01:29:34;;;;;;;15.15;10.23;;;12.20;95.20;;;;;;1873898;76;21142;-55
2022/11/17 01:32:04;;;;;;;18.77;10.60;;;12.20;95.20;;;;;;1874020;76;21027;-55
2022/11/17 01:34:33;;;;;;;15.18;9.90;;;12.20;95.30;;;;;;1842753;76;21019;-55
2022/11/17 01:37:20;;;;;;;16.62;9.93;;;12.10;95.30;;;;;;1874042;76;21039;-54
2022/11/17 01:39:50;;;;;;;15.83;10.45;;;12.10;95.50;;;;;;1874059;76;21067;-55
2022/11/17 01:42:21;;;;;;;18.15;11.53;;;12.10;95.40;;;;;;1873893;75;21056;-55
2022/11/17 01:44:56;;;;;;;16.87;11.40;;;12.10;95.40;;;;;;1873937;76;21004;-56
2022/11/17 01:47:30;;;;;;;17.07;10.70;;;12.10;95.40;;;;;;1874101;76;21043;-55
2022/11/17 01:50:08;;;;;;;12.73;10.58;;;12.10;95.40;;;;;;1874001;76;21528;-56
2022/11/17 01:52:39;;;;;;;17.42;11.48;;;12.10;95.50;;;;;;1864653;76;21121;-54
2022/11/17 01:55:10;;;;;;;20.37;13.05;;;12.10;95.40;;;;;;1873929;76;21085;-54
2022/11/17 01:57:45;;;;;;;17.52;11.57;;;12.20;95.40;;;;;;1873895;76;21071;-53
2022/11/17 02:00:15;;;;;;;21.77;13.43;;;12.10;95.40;;;;;;1872980;76;21036;-55
2022/11/17 02:02:45;;;;;;;19.23;12.53;;;12.10;95.40;;;;;;1874048;75;21023;-56
2022/11/17 02:05:25;;;;;;;21.40;12.53;;;12.10;95.50;;;;;;1873863;76;21008;-56
2022/11/17 02:07:57;;;;;;;19.67;12.45;;;12.10;95.50;;;;;;1873387;75;21035;-55
2022/11/17 02:10:26;;;;;;;17.92;12.18;;;12.10;95.40;;;;;;1873853;76;21410;-56
2022/11/17 02:12:55;;;;;;;18.48;12.82;;;12.10;95.50;;;;;;1873949;75;21052;-55
2022/11/17 02:15:25;;;;;;;19.20;12.88;;;12.10;95.60;;;;;;1873939;76;21458;-55
2022/11/17 02:17:55;;;;;;;19.20;13.58;;;12.10;95.50;;;;;;1873993;75;21122;-54
2022/11/17 02:20:53;;;;;;;19.02;12.82;;;12.00;95.60;;;;;;1873861;76;21079;-56
2022/11/17 02:23:36;;;;;;;18.55;12.33;;;12.10;95.50;;;;;;1873891;76;21126;-54
2022/11/17 02:26:08;;;;;;;15.75;11.43;;;12.10;95.50;;;;;;1873867;75;21133;-55
2022/11/17 02:28:40;;;;;;;18.17;12.33;;;12.10;95.50;;;;;;1872786;76;21047;-56
2022/11/17 02:31:28;;;;;;;17.70;12.30;;;12.10;95.40;;;;;;1866803;76;21122;-56
2022/11/17 02:34:05;;;;;;;20.10;13.65;;;12.10;95.30;;;;;;1867550;76;21032;-55
2022/11/17 02:36:52;;;;;;;20.88;12.95;;;12.10;95.30;;;;;;1860547;77;21044;-55
2022/11/17 02:39:33;;;;;;;22.55;12.53;;;12.10;95.30;;;;;;1867544;77;21118;-55
2022/11/17 02:42:20;;;;;;;19.25;12.28;;;12.10;95.30;;;;;;1852159;77;21031;-56
2022/11/17 02:44:54;;;;;;;17.85;12.33;;;12.10;95.30;;;;;;1867456;77;21087;-56
2022/11/17 02:47:29;;;;;;;18.98;11.45;;;12.10;95.30;;;;;;1866345;77;21490;-54
2022/11/17 02:50:00;;;;;;;20.00;12.78;;;12.10;95.30;;;;;;1867607;77;21122;-55
2022/11/17 02:52:30;;;;;;;16.90;11.48;;;12.10;95.30;;;;;;1866454;77;21502;-55
2022/11/17 02:55:01;;;;;;;15.75;10.93;;;12.10;95.10;;;;;;1867365;77;21035;-56
2022/11/17 02:57:35;;;;;;;15.95;11.05;;;12.10;95.30;;;;;;1867346;76;21015;-54
2022/11/17 03:00:13;;;;;;;15.30;11.15;;;12.20;95.30;;;;;;1867649;75;21109;-55
2022/11/17 03:02:50;;;;;;;16.07;10.20;;;12.20;95.30;;;;;;1867522;77;21036;-55
2022/11/17 03:05:40;;;;;;;17.48;11.33;;;12.20;95.30;;;;;;1867495;76;21107;-54
2022/11/17 03:08:33;;;;;;;13.88;9.15;;;12.20;95.20;;;;;;1867484;77;21090;-53
2022/11/17 03:11:04;;;;;;;16.02;10.13;;;12.20;95.50;;;;;;1866840;76;21139;-55
2022/11/17 03:13:51;;;;;;;19.27;10.93;;;12.30;95.20;;;;;;1867482;76;21048;-54
2022/11/17 03:16:40;;;;;;;15.45;10.80;;;12.30;95.10;;;;;;1866234;76;21103;-55
2022/11/17 03:19:29;;;;;;;17.80;11.85;;;12.30;95.10;;;;;;1866553;76;21667;-55
2022/11/17 03:22:24;;;;;;;17.75;9.70;;;12.20;95.10;;;;;;1867337;75;21189;-55
2022/11/17 03:24:58;;;;;;;14.93;10.25;;;12.30;95.20;;;;;;1867415;76;21051;-55
2022/11/17 03:27:33;;;;;;;16.67;10.55;;;12.30;95.20;;;;;;1867472;76;21098;-55
2022/11/17 03:30:06;;;;;;;18.87;11.28;;;12.20;95.10;;;;;;1867291;76;21053;-55
2022/11/17 03:32:37;;;;;;;15.10;10.95;;;12.30;95.20;;;;;;1875947;76;21000;-54
2022/11/17 03:35:09;;;;;;;16.60;10.88;;;12.20;95.20;;;;;;1875881;75;21035;-55
2022/11/17 03:37:43;;;;;;;17.85;11.60;;;12.20;95.50;;;;;;1875865;76;21019;-55
2022/11/17 03:40:15;;;;;;;18.02;11.57;;;12.20;95.20;;;;;;1876138;75;21117;-55
2022/11/17 03:42:51;;;;;;;16.77;11.53;;;12.20;95.10;;;;;;1875881;76;21085;-56
2022/11/17 03:45:35;;;;;;;19.12;11.50;;;12.20;95.10;;;;;;1875867;75;21518;-56
2022/11/17 03:48:13;;;;;;;17.48;10.90;;;12.30;95.10;;;;;;1876045;76;21008;-56
2022/11/17 03:50:47;;;;;;;17.77;11.15;;;12.20;95.10;;;;;;1875894;75;21077;-55
2022/11/17 03:53:17;;;;;;;18.90;10.80;;;12.30;94.90;;;;;;1876068;76;21067;-56
2022/11/17 03:56:07;;;;;;;15.58;10.63;;;12.30;94.80;;;;;;1875813;75;21046;-55
2022/11/17 03:58:38;;;;;;;14.83;10.98;;;12.30;94.80;;;;;;1875875;76;21031;-56
2022/11/17 04:01:08;;;;;;;16.82;9.73;;;12.30;94.60;;;;;;1875236;75;21102;-56
2022/11/17 04:03:37;;;;;;;12.45;9.45;;;12.40;94.90;;;;;;1875898;75;21007;-56
2022/11/17 04:06:06;;;;;;;18.52;10.13;;;12.40;94.50;;;;;;1875909;76;21019;-55
2022/11/17 04:08:35;;;;;;;11.48;8.85;;;12.40;94.30;;;;;;1875874;76;21101;-55
2022/11/17 04:16:39;;;;;;;16.73;10.82;;;12.50;94.10;;;;;;1875809;76;21055;-53
2022/11/17 04:19:08;;;;;;;14.38;10.98;;;12.60;94.00;;;;;;1875863;76;21027;-55
2022/11/17 04:21:37;;;;;;;13.28;8.68;;;12.60;94.10;;;;;;1875910;76;21113;-56
2022/11/17 04:24:07;;;;;;;15.58;9.18;;;12.60;93.80;;;;;;1875819;76;21063;-54
2022/11/17 04:29:24;;;;;;;18.95;10.53;;;12.70;93.70;;;;;;1875752;76;21044;-54
2022/11/17 04:31:53;;;;;;;16.10;9.78;;;12.70;93.70;;;;;;1874720;75;21133;-55
2022/11/17 04:34:22;;;;;;;12.03;7.72;;;12.70;93.60;;;;;;1873678;76;21039;-55
2022/11/17 04:36:52;;;;;;;13.75;10.13;;;12.70;93.40;;;;;;1873792;76;21070;-56
2022/11/17 04:39:21;;;;;;;17.32;10.70;;;12.70;93.50;;;;;;1873721;76;21040;-55
2022/11/17 04:41:56;;;;;;;14.80;9.78;;;12.70;93.60;;;;;;1873725;75;21102;-56
2022/11/17 04:44:27;;;;;;;15.60;10.90;;;12.80;93.70;;;;;;1874107;76;21469;-56
2022/11/17 04:46:57;;;;;;;15.68;10.28;;;12.70;93.60;;;;;;1873726;76;21119;-56
2022/11/17 04:49:26;;;;;;;12.65;9.28;;;12.70;93.50;;;;;;1873743;76;21000;-55
2022/11/17 04:51:55;;;;;;;17.00;10.82;;;12.70;93.60;;;;;;1873682;76;21035;-55
2022/11/17 04:54:25;;;;;;;16.93;10.88;;;12.80;93.70;;;;;;1873703;76;21037;-56
2022/11/17 04:56:55;;;;;;;16.57;11.35;;;12.80;93.70;;;;;;1873689;76;21133;-56
2022/11/17 04:59:25;;;;;;;18.32;11.53;;;12.70;93.80;;;;;;1873701;76;21097;-55
2022/11/17 05:01:53;;;;;;;16.12;11.12;;;12.70;93.70;;;;;;1873694;75;21043;-54
2022/11/17 05:07:10;;;;;;;16.55;10.78;;;12.80;93.80;;;;;;1873717;75;21036;-56
2022/11/17 05:09:39;;;;;;;20.02;12.30;;;12.80;93.90;;;;;;1873660;76;21027;-55
2022/11/17 05:14:56;;;;;;;21.02;13.20;;;12.80;94.00;;;;;;1873646;76;21118;-54
2022/11/17 05:17:25;;;;;;;22.82;13.65;;;12.70;94.10;;;;;;1873627;76;21011;-54
2022/11/17 05:19:56;;;;;;;20.23;13.28;;;12.70;94.20;;;;;;1873683;76;21035;-55
2022/11/17 05:25:12;;;;;;;26.95;15.18;;;12.60;94.30;;;;;;1873654;76;21031;-55
2022/11/17 05:27:41;;;;;;;23.35;15.20;;;12.60;94.40;;;;;;1873671;76;21062;-54
2022/11/17 05:30:11;;;;;;;23.27;14.30;;;12.60;94.50;;;;;;1873611;76;21075;-54
2022/11/17 05:32:41;;;;;;;33.65;18.42;;;12.50;94.50;;;;;;1873632;76;21181;-53
2022/11/17 05:35:10;;;;;;;30.27;17.50;;;12.50;94.50;;;;;;1873626;75;21099;-55
2022/11/17 05:37:39;;;;;;;25.12;16.12;;;12.50;94.60;;;;;;1873754;76;21052;-55
2022/11/17 05:40:09;;;;;;;26.33;15.80;;;12.50;94.60;;;;;;1873731;75;21027;-55
2022/11/17 05:42:38;;;;;;;26.45;14.87;;;12.50;94.80;;;;;;1873674;76;21102;-56
2022/11/17 05:45:08;;;;;;;23.80;14.25;;;12.50;94.90;;;;;;1873647;76;21032;-55
2022/11/17 05:47:38;;;;;;;26.27;14.58;;;12.50;95.00;;;;;;1873667;76;21040;-54
2022/11/17 05:50:08;;;;;;;19.67;14.53;;;12.50;94.80;;;;;;1873644;75;21039;-55
2022/11/17 05:52:37;;;;;;;30.35;17.25;;;12.50;94.90;;;;;;1873616;76;21039;-55
2022/11/17 05:55:07;;;;;;;23.80;16.07;;;12.50;94.90;;;;;;1873612;76;21102;-55
2022/11/17 05:57:36;;;;;;;19.15;13.60;;;12.50;95.00;;;;;;1873638;76;21119;-54
2022/11/17 06:00:07;;;;;;;22.25;14.95;;;12.50;95.10;;;;;;1873677;75;21063;-55
2022/11/17 06:02:53;;;;;;;22.65;14.98;;;12.50;95.00;;;;;;1873884;76;21497;-55
2022/11/17 06:05:22;;;;;;;24.52;14.53;;;12.50;95.20;;;;;;1873579;76;21027;-56
2022/11/17 06:07:57;;;;;;;20.45;14.15;;;12.50;95.20;;;;;;1873674;76;21118;-56
2022/11/17 06:10:26;;;;;;;18.60;13.57;;;12.50;95.30;;;;;;1873859;75;21102;-55
2022/11/17 06:12:55;;;;;;;18.80;13.95;;;12.60;95.30;;;;;;1873663;76;21356;-56
2022/11/17 06:15:24;;;;;;;20.85;13.15;;;12.60;95.20;;;;;;1873557;75;21031;-55
2022/11/17 06:18:08;;;;;;;21.70;14.58;;;12.60;95.20;;;;;;1873626;76;21140;-55
2022/11/17 06:20:40;;;;;;;26.55;14.33;;;12.70;95.20;;;;;;1872458;76;21031;-54
2022/11/17 06:23:10;;;;;;;18.57;13.93;;;12.70;95.20;;;;;;1873671;76;21040;-55
2022/11/17 06:25:40;;;;;;;21.60;14.00;;;12.70;95.10;;;;;;1873838;76;21098;-56
2022/11/17 06:28:11;;;;;;;20.85;13.53;;;12.80;95.10;;;;;;1873659;76;21030;-55
2022/11/17 06:30:42;;;;;;;18.20;12.50;;;12.80;95.10;;;;;;1873561;75;21063;-55
2022/11/17 06:33:14;;;;;;;21.52;14.05;;;12.80;95.30;;;;;;1875519;76;21094;-53
2022/11/17 06:35:45;;;;;;;22.05;13.22;;;12.80;95.20;;;;;;1877275;76;21038;-56
2022/11/17 06:38:14;;;;;;;20.05;12.68;;;12.90;95.20;;;;;;1877339;76;21027;-54
2022/11/17 06:40:43;;;;;;;19.25;13.45;;;12.90;95.20;;;;;;1877227;76;21485;-56
2022/11/17 06:43:12;;;;;;;19.92;13.15;;;13.00;95.20;;;;;;1877387;76;20998;-55
2022/11/17 06:45:44;;;;;;;17.87;12.45;;;13.00;95.20;;;;;;1877337;76;21078;-56
2022/11/17 06:48:16;;;;;;;18.92;12.37;;;13.10;95.20;;;;;;1877352;76;21090;-55
2022/11/17 06:50:46;;;;;;;21.68;13.50;;;13.10;95.10;;;;;;1877286;75;21112;-55
2022/11/17 06:53:15;;;;;;;18.50;12.80;;;13.20;95.10;;;;;;1877543;76;21022;-54
2022/11/17 06:55:57;;;;;;;22.07;13.48;;;13.20;95.00;;;;;;1877287;76;21038;-56
2022/11/17 06:58:17;;;;;;;19.57;13.60;;;13.30;95.00;;;;;;1877152;76;21039;-54
2022/11/17 07:00:46;;;;;;;18.25;12.98;;;13.30;95.00;;;;;;1877306;76;21014;-56
2022/11/17 07:03:16;;;;;;;21.52;14.33;;;13.30;95.00;;;;;;1877350;76;21200;-55
2022/11/17 07:05:45;;;;;;;19.48;13.55;;;13.30;95.00;;;;;;1877361;76;21087;-55
2022/11/17 07:08:15;;;;;;;23.18;14.45;;;13.30;95.00;;;;;;1877228;76;21462;-55
2022/11/17 07:10:44;;;;;;;25.65;14.83;;;13.30;95.00;;;;;;1877185;76;21034;-54
2022/11/17 07:13:13;;;;;;;26.42;17.27;;;13.30;95.00;;;;;;1877292;75;21038;-55
2022/11/17 07:15:42;;;;;;;21.45;13.95;;;13.30;95.10;;;;;;1877266;76;21079;-56
2022/11/17 07:18:11;;;;;;;23.35;13.85;;;13.20;95.00;;;;;;1877231;76;21153;-55
2022/11/17 07:20:40;;;;;;;19.55;12.90;;;13.30;95.10;;;;;;1877264;76;21104;-56
2022/11/17 07:23:09;;;;;;;19.35;13.03;;;13.30;95.40;;;;;;1877385;75;21112;-56
2022/11/17 07:25:38;;;;;;;28.00;12.98;;;13.30;95.40;;;;;;1877298;76;21038;-55
2022/11/17 07:28:07;;;;;;;19.82;13.28;;;13.40;95.50;;;;;;1877291;76;21108;-54
2022/11/17 07:30:36;;;;;;;23.15;14.83;;;13.40;95.40;;;;;;1877163;76;21025;-55
2022/11/17 07:33:05;;;;;;;17.23;11.80;;;13.50;95.40;;;;;;1877143;76;21124;-55
2022/11/17 07:35:36;;;;;;;16.45;11.85;;;13.50;95.10;;;;;;1877157;76;21128;-56
2022/11/17 07:38:05;;;;;;;20.65;13.03;;;13.50;94.90;;;;;;1877225;76;21112;-55
2022/11/17 07:40:34;;;;;;;25.62;13.68;;;13.60;95.00;;;;;;1877247;75;21030;-54
2022/11/17 07:43:04;;;;;;;19.35;13.18;;;13.60;95.00;;;;;;1877331;76;21043;-56
2022/11/17 07:45:35;;;;;;;18.55;13.38;;;13.70;94.90;;;;;;1877223;74;21120;-53
2022/11/17 07:48:05;;;;;;;16.15;10.80;;;13.70;94.80;;;;;;1877264;75;21094;-55
2022/11/17 07:50:35;;;;;;;24.63;15.65;;;13.70;95.00;;;;;;1877278;76;21038;-55
2022/11/17 07:53:05;;;;;;;17.73;12.70;;;13.60;94.90;;;;;;1877280;76;21030;-57
2022/11/17 07:55:33;;;;;;;17.87;12.55;;;13.60;95.00;;;;;;1877312;76;21038;-56
2022/11/17 07:58:03;;;;;;;21.37;13.80;;;13.60;95.20;;;;;;1877251;76;21043;-57
2022/11/17 08:00:32;;;;;;;24.02;13.98;;;13.60;95.10;;;;;;1877212;76;21105;-57
2022/11/17 08:03:02;;;;;;;22.45;14.10;;;13.70;95.30;;;;;;1877317;76;21066;-57
2022/11/17 08:05:35;;;;;;;30.97;17.60;;;13.70;95.40;;;;;;1877337;76;21069;-57
2022/11/17 08:08:04;;;;;;;28.80;17.02;;;13.60;95.30;;;;;;1877207;76;21058;-56
2022/11/17 08:10:34;;;;;;;27.20;15.58;;;13.60;95.40;;;;;;1877255;76;21015;-56
2022/11/17 08:13:03;;;;;;;25.08;15.43;;;13.50;95.30;;;;;;1877420;76;21104;-56
2022/11/17 08:15:32;;;;;;;31.12;15.40;;;13.60;95.40;;;;;;1877152;76;21160;-54
2022/11/17 08:18:01;;;;;;;27.32;15.40;;;13.60;95.40;;;;;;1877135;76;21074;-59
2022/11/17 08:20:30;;;;;;;27.15;15.40;;;13.60;95.60;;;;;;1877023;76;21030;-59
2022/11/17 08:23:00;;;;;;;25.55;16.50;;;13.70;95.60;;;;;;1877465;76;21038;-58
2022/11/17 08:25:29;;;;;;;23.45;14.98;;;13.80;95.60;;;;;;1877418;76;21042;-58
2022/11/17 08:27:59;;;;;;;21.23;14.23;;;13.90;95.50;;;;;;1877293;76;21113;-58
2022/11/17 08:30:29;;;;;;;22.80;15.30;;;13.90;95.50;;;;;;1877306;76;21002;-58
2022/11/17 08:32:58;;;;;;;23.95;14.63;;;14.00;95.40;;;;;;1877350;76;21038;-58
2022/11/17 08:35:28;;;;;;;26.02;14.03;;;14.00;95.30;;;;;;1877406;76;21038;-58
2022/11/17 08:37:57;;;;;;;30.25;16.65;;;14.10;95.20;;;;;;1877382;76;21105;-58
2022/11/17 08:40:26;;;;;;;21.57;13.58;;;14.10;95.10;;;;;;1877432;76;21140;-58
2022/11/17 08:42:55;;;;;;;33.70;16.73;;;14.20;95.00;;;;;;1877352;75;21092;-58
2022/11/17 08:45:25;;;;;;;39.33;16.80;;;14.20;95.00;;;;;;1877386;76;21101;-58
2022/11/17 08:47:56;;;;;;;108.60;31.37;;;14.30;94.90;;;;;;1877506;75;21030;-59
2022/11/17 08:50:25;;;;;;;188.68;48.17;;;14.30;94.90;;;;;;1877403;75;21011;-61
2022/11/17 08:52:54;;;;;;;251.35;62.93;;;14.40;94.80;;;;;;1877288;76;21050;-61
2022/11/17 08:55:24;;;;;;;318.20;85.12;;;14.50;94.50;;;;;;1877325;76;21018;-61
2022/11/17 08:57:54;;;;;;;332.43;88.97;;;14.50;94.40;;;;;;1877316;76;21038;-61
2022/11/17 09:00:23;;;;;;;402.50;119.87;;;14.50;94.40;;;;;;1877368;76;21129;-61
2022/11/17 09:02:52;;;;;;;291.40;85.45;;;14.60;94.40;;;;;;1877370;76;21094;-61
2022/11/17 09:05:23;;;;;;;265.40;78.10;;;14.60;94.30;;;;;;1877414;76;21092;-61
2022/11/17 09:07:53;;;;;;;514.87;143.50;;;14.60;93.90;;;;;;1877329;76;21093;-61
2022/11/17 09:10:22;;;;;;;110.63;40.30;;;14.60;94.00;;;;;;1877189;76;21144;-61
2022/11/17 09:12:52;;;;;;;525.58;153.97;;;14.60;93.80;;;;;;1877295;76;21571;-61
2022/11/17 09:15:21;;;;;;;574.90;170.22;;;14.60;93.70;;;;;;1877315;75;21031;-61
2022/11/17 09:17:50;;;;;;;558.48;166.90;;;14.60;93.80;;;;;;1877344;75;21030;-62
2022/11/17 09:20:20;;;;;;;336.20;103.20;;;14.60;94.00;;;;;;1877231;76;21465;-61
2022/11/17 09:22:49;;;;;;;405.15;127.20;;;14.70;94.00;;;;;;1877269;76;21522;-61
2022/11/17 09:25:18;;;;;;;488.30;151.87;;;14.70;93.70;;;;;;1877291;76;21018;-61
2022/11/17 09:27:49;;;;;;;697.33;231.82;;;14.70;93.60;;;;;;1877230;76;21153;-62
2022/11/17 09:30:21;;;;;;;647.20;209.25;;;14.70;93.70;;;;;;1877310;76;21034;-59
2022/11/17 09:32:50;;;;;;;933.80;311.27;;;14.70;93.70;;;;;;1877337;75;21090;-59
2022/11/17 09:35:21;;;;;;;1385.33;475.40;;;14.70;93.80;;;;;;1877409;75;21124;-60
2022/11/17 09:37:51;;;;;;;672.13;223.43;;;14.70;93.80;;;;;;1877357;75;21071;-59
2022/11/17 09:40:20;;;;;;;352.82;109.80;;;14.70;93.90;;;;;;1877267;76;21079;-59
2022/11/17 09:42:50;;;;;;;265.73;82.22;;;14.70;93.90;;;;;;1877326;76;21019;-59
2022/11/17 09:45:22;;;;;;;287.85;87.12;;;14.70;94.00;;;;;;1877459;76;21120;-59
2022/11/17 09:47:56;;;;;;;243.50;75.62;;;14.60;93.90;;;;;;1877347;76;21034;-59
2022/11/17 09:50:35;;;;;;;208.40;65.30;;;14.60;93.90;;;;;;1877539;76;21113;-58
2022/11/17 09:53:15;;;;;;;179.78;55.65;;;14.50;94.00;;;;;;1877475;76;21100;-58
2022/11/17 09:55:47;;;;;;;182.50;61.48;;;14.50;93.80;;;;;;1877448;76;21041;-58
2022/11/17 09:58:38;;;;;;;131.70;45.35;;;14.50;94.10;;;;;;1877356;76;21100;-58
2022/11/17 10:01:12;;;;;;;51.10;23.50;;;14.60;94.20;;;;;;1877356;75;21047;-57
2022/11/17 10:03:44;;;;;;;43.90;23.43;;;14.50;94.20;;;;;;1877165;76;21086;-57
2022/11/17 10:06:15;;;;;;;157.72;53.05;;;14.60;94.10;;;;;;1875825;75;21338;-58
2022/11/17 10:09:07;;;;;;;37.45;22.87;;;14.60;94.10;;;;;;1875888;75;21045;-57
2022/11/17 10:11:39;;;;;;;31.17;19.65;;;14.50;94.10;;;;;;1875247;75;21030;-57
2022/11/17 10:14:13;;;;;;;34.25;21.48;;;14.50;94.10;;;;;;1876217;76;21077;-57
2022/11/17 10:16:43;;;;;;;;;;;14.50;94.00;;;;;;1879140;76;21122;-57
2022/11/17 10:19:23;;;;;;;21.97;15.80;;;14.50;94.20;;;;;;1876605;76;20108;-58
2022/11/17 10:22:01;;;;;;;36.15;20.65;;;14.50;94.00;;;;;;1877406;76;21042;-57
2022/11/17 10:24:35;;;;;;;33.58;18.40;;;14.50;94.00;;;;;;1863414;75;21100;-58
2022/11/17 10:27:07;;;;;;;34.80;18.95;;;14.50;93.90;;;;;;1877422;76;21500;-57
2022/11/17 10:29:36;;;;;;;31.07;17.17;;;14.40;93.70;;;;;;1876603;76;21007;-58
2022/11/17 10:32:08;;;;;;;27.48;16.87;;;14.50;93.80;;;;;;1877364;76;21018;-58
2022/11/17 10:34:38;;;;;;;25.45;17.87;;;14.50;93.80;;;;;;1877502;76;21096;-58
2022/11/17 10:37:16;;;;;;;32.63;18.10;;;14.50;93.70;;;;;;1877206;76;21124;-58
2022/11/17 10:39:46;;;;;;;78.07;32.13;;;14.50;94.00;;;;;;1872794;76;21027;-58
2022/11/17 10:42:28;;;;;;;70.20;28.23;;;14.50;93.90;;;;;;1877199;76;21026;-59
2022/11/17 10:45:00;;;;;;;64.70;29.25;;;14.50;94.00;;;;;;1877388;76;21019;-59
2022/11/17 10:47:32;;;;;;;40.10;22.52;;;14.70;94.00;;;;;;1877461;76;21501;-58
2022/11/17 10:50:21;;;;;;;37.08;20.82;;;14.70;93.90;;;;;;1876620;76;21082;-57
2022/11/17 10:52:51;;;;;;;31.02;19.23;;;14.70;93.60;;;;;;1875919;76;21628;-58
2022/11/17 10:55:26;;;;;;;31.02;18.52;;;14.80;93.50;;;;;;1875451;76;21070;-58
2022/11/17 10:58:01;;;;;;;26.30;17.77;;;14.70;93.30;;;;;;1875353;76;21078;-57
2022/11/17 11:00:35;;;;;;;32.50;19.77;;;14.70;93.40;;;;;;1875640;76;21038;-57
2022/11/17 11:03:18;;;;;;;29.52;19.57;;;14.70;93.30;;;;;;1875637;76;21515;-57
2022/11/17 11:06:05;;;;;;;35.43;20.75;;;14.70;93.30;;;;;;1874276;76;21517;-57
2022/11/17 11:08:37;;;;;;;34.78;20.68;;;14.60;93.30;;;;;;1877597;76;21062;-58
2022/11/17 11:11:09;;;;;;;32.90;19.92;;;14.60;93.20;;;;;;1876620;75;21504;-57
2022/11/17 11:13:52;;;;;;;40.60;23.65;;;14.60;93.20;;;;;;1877701;75;21034;-57
2022/11/17 11:16:22;;;;;;;29.32;20.80;;;14.60;93.40;;;;;;1876785;76;21058;-57
2022/11/17 11:18:52;;;;;;;42.85;23.95;;;14.60;93.30;;;;;;1877066;76;21035;-58
2022/11/17 11:21:27;;;;;;;44.42;23.85;;;14.70;93.50;;;;;;1876933;76;21121;-58
2022/11/17 11:24:01;;;;;;;43.02;26.62;;;14.70;93.50;;;;;;1877814;76;21131;-60
2022/11/17 11:26:48;;;;;;;36.45;21.23;;;14.80;93.50;;;;;;1877419;75;21046;-59
2022/11/17 11:29:39;;;;;;;39.40;24.18;;;14.90;93.50;;;;;;1877574;75;21128;-59
2022/11/17 11:32:31;;;;;;;91.87;27.58;;;14.90;93.40;;;;;;1876541;75;21027;-59
2022/11/17 11:35:15;;;;;;;78.12;24.85;;;14.90;93.20;;;;;;1877230;76;21094;-59
2022/11/17 11:37:59;;;;;;;56.28;21.57;;;15.00;93.30;;;;;;1875226;76;21042;-64
2022/11/17 11:40:31;;;;;;;67.53;24.00;;;14.90;92.90;;;;;;1877329;76;21007;-65
2022/11/17 11:43:18;;;;;;;59.77;22.62;;;15.00;92.70;;;;;;1877289;76;21133;-62
2022/11/17 11:45:53;;;;;;;50.08;25.17;;;15.00;92.80;;;;;;1876911;76;21031;-59
2022/11/17 11:48:30;;;;;;;;;;;14.90;92.60;;;;;;1880583;75;21108;-61
2022/11/17 11:51:01;;;;;;;31.10;18.48;;;15.00;92.50;;;;;;1877427;76;20112;-61
2022/11/17 11:53:57;;;;;;;41.37;24.37;;;15.00;92.50;;;;;;1877136;76;21042;-61
2022/11/17 11:56:40;;;;;;;37.50;21.05;;;14.90;92.70;;;;;;1877104;76;21059;-62
2022/11/17 11:59:18;;;;;;;37.80;18.27;;;14.90;92.50;;;;;;1877359;76;21112;-60
2022/11/17 12:02:02;;;;;;;64.80;25.45;;;14.90;92.50;;;;;;1877179;76;21050;-63
2022/11/17 12:04:42;;;;;;;46.18;23.42;;;14.90;92.50;;;;;;1877473;76;21010;-64
2022/11/17 12:07:38;;;;;;;31.75;20.02;;;14.90;92.50;;;;;;1877309;75;21104;-57
2022/11/17 12:10:12;;;;;;;34.50;20.40;;;14.90;92.50;;;;;;1877192;76;21112;-53
2022/11/17 12:12:44;;;;;;;30.37;19.10;;;14.90;92.50;;;;;;1876632;76;21537;-56
2022/11/17 12:15:22;;;;;;;21.52;15.63;;;14.80;92.20;;;;;;1877430;76;21524;-55
2022/11/17 12:18:03;;;;;;;24.00;17.65;;;14.80;92.00;;;;;;1872539;76;21102;-55
2022/11/17 12:20:35;;;;;;;27.77;18.15;;;14.80;92.10;;;;;;1876954;76;21186;-56
2022/11/17 12:23:15;;;;;;;25.25;18.10;;;14.70;92.20;;;;;;1877416;76;21167;-56
2022/11/17 12:25:47;;;;;;;24.90;15.90;;;14.70;92.20;;;;;;1877117;76;21132;-54
2022/11/17 12:28:30;;;;;;;23.60;16.27;;;14.60;91.80;;;;;;1877428;75;21038;-56
2022/11/17 12:31:02;;;;;;;23.25;14.87;;;14.60;92.00;;;;;;1877400;75;21060;-55
2022/11/17 12:33:54;;;;;;;25.75;16.45;;;14.60;91.90;;;;;;1877399;76;21015;-56
2022/11/17 12:36:34;;;;;;;29.70;18.65;;;14.60;91.70;;;;;;1877410;76;21106;-55
2022/11/17 12:39:06;;;;;;;24.67;15.72;;;14.60;91.70;;;;;;1877339;76;21058;-55
2022/11/17 12:41:53;;;;;;;26.25;16.87;;;14.60;91.50;;;;;;1877409;76;21087;-57
2022/11/17 12:44:44;;;;;;;25.92;16.90;;;14.60;91.70;;;;;;1877343;76;21046;-55
2022/11/17 12:47:19;;;;;;;28.35;17.65;;;14.50;91.90;;;;;;1877187;76;21090;-56
2022/11/17 12:50:03;;;;;;;30.15;17.10;;;14.50;91.60;;;;;;1877357;76;21014;-56
2022/11/17 12:52:51;;;;;;;29.07;16.85;;;14.50;91.70;;;;;;1854250;76;21054;-56
2022/11/17 12:55:32;;;;;;;28.32;17.15;;;14.50;91.70;;;;;;1877357;76;21054;-56
2022/11/17 12:58:21;;;;;;;29.15;18.23;;;14.50;91.70;;;;;;1875898;76;21120;-57
2022/11/17 13:01:10;;;;;;;29.72;18.15;;;14.40;91.70;;;;;;1877054;76;21039;-56
2022/11/17 13:03:59;;;;;;;26.33;18.17;;;14.40;91.90;;;;;;1877505;76;21116;-56
2022/11/17 13:06:29;;;;;;;26.95;16.97;;;14.40;91.80;;;;;;1877474;76;21113;-57
2022/11/17 13:08:59;;;;;;;35.40;19.60;;;14.40;91.80;;;;;;1877319;76;21023;-55
2022/11/17 13:11:29;;;;;;;28.40;19.85;;;14.40;91.90;;;;;;1877296;76;21036;-55
2022/11/17 13:14:15;;;;;;;31.40;20.37;;;14.30;91.80;;;;;;1877452;76;21035;-55
2022/11/17 13:16:47;;;;;;;29.82;18.87;;;14.40;91.90;;;;;;1877363;75;21051;-57
2022/11/17 13:19:28;;;;;;;34.27;20.10;;;14.40;92.00;;;;;;1877346;76;21050;-55
2022/11/17 13:22:20;;;;;;;28.02;17.98;;;14.30;91.90;;;;;;1877358;76;21120;-56
2022/11/17 13:24:52;;;;;;;27.58;17.25;;;14.30;91.90;;;;;;1877339;76;21082;-57